Time;durP1;ratioP1;P1;durP2;ratioP2;P2;SDS_P1;SDS_P2;PMS_P1;PMS_P2;Temp;Humidity;BMP_temperature;BMP_pressure;BME280_temperature;BME280_humidity;BME280_pressure;Samples;Min_cycle;Max_cycle;Signal;HPM_P1;HPM_P2
2023/04/09 00:02:18;;;;;;;8.93;6.70;;;10.70;99.90;;;;;;7390259;19;20142;-75
2023/04/09 00:04:44;;;;;;;7.87;6.37;;;10.80;99.90;;;;;;7391451;19;20158;-74
2023/04/09 00:07:10;;;;;;;8.07;6.30;;;10.70;99.90;;;;;;7389355;19;20142;-74
2023/04/09 00:09:36;;;;;;;9.37;6.70;;;10.70;99.90;;;;;;7389709;19;20150;-75
2023/04/09 00:12:02;;;;;;;7.50;6.30;;;10.60;99.90;;;;;;7389039;19;20162;-74
2023/04/09 00:14:28;;;;;;;8.83;6.80;;;10.70;99.90;;;;;;7391905;19;20154;-75
2023/04/09 00:16:54;;;;;;;9.50;6.20;;;10.80;99.90;;;;;;7391255;19;20485;-74
2023/04/09 00:19:20;;;;;;;8.20;6.97;;;10.80;99.90;;;;;;7391110;19;20732;-75
2023/04/09 00:21:47;;;;;;;8.53;6.60;;;10.80;99.90;;;;;;7389968;19;20165;-75
2023/04/09 00:24:13;;;;;;;10.87;7.07;;;10.70;99.90;;;;;;7390407;19;20200;-75
2023/04/09 00:26:39;;;;;;;9.13;7.27;;;10.70;99.90;;;;;;7390510;19;20146;-74
2023/04/09 00:29:05;;;;;;;8.97;6.83;;;10.70;99.90;;;;;;7391712;19;20142;-74
2023/04/09 00:31:31;;;;;;;9.47;7.07;;;10.80;99.90;;;;;;7390538;19;20587;-74
2023/04/09 00:33:57;;;;;;;11.07;7.67;;;10.70;99.90;;;;;;7390814;19;20350;-74
2023/04/09 00:36:23;;;;;;;9.13;7.13;;;10.60;99.90;;;;;;7391196;19;20135;-74
2023/04/09 00:38:49;;;;;;;9.60;7.13;;;10.60;99.90;;;;;;7392696;19;20138;-74
2023/04/09 00:41:16;;;;;;;8.90;6.37;;;10.60;99.90;;;;;;7388419;19;20174;-75
2023/04/09 00:43:42;;;;;;;10.27;7.70;;;10.60;99.90;;;;;;7391575;19;20520;-74
2023/04/09 00:46:08;;;;;;;9.23;7.20;;;10.60;99.90;;;;;;7391668;19;20163;-74
2023/04/09 00:48:34;;;;;;;9.87;7.53;;;10.60;99.90;;;;;;7388842;19;20572;-75
2023/04/09 00:50:59;;;;;;;7.80;6.60;;;10.80;99.90;;;;;;7391285;19;20258;-75
2023/04/09 00:53:25;;;;;;;7.87;7.03;;;10.60;99.90;;;;;;7392063;19;20146;-74
2023/04/09 00:55:52;;;;;;;10.20;7.23;;;10.70;99.90;;;;;;7390359;19;20141;-74
2023/04/09 00:58:18;;;;;;;8.63;6.83;;;10.60;99.90;;;;;;7388949;19;20158;-75
2023/04/09 01:00:44;;;;;;;9.17;7.03;;;10.60;99.90;;;;;;7389610;19;20154;-74
2023/04/09 01:03:09;;;;;;;11.13;7.80;;;10.60;99.90;;;;;;7388161;19;20623;-74
2023/04/09 01:05:49;;;;;;;9.30;7.73;;;10.60;99.90;;;;;;7389634;19;20548;-74
2023/04/09 01:08:36;;;;;;;9.93;7.30;;;10.60;99.90;;;;;;7386194;19;20265;-74
2023/04/09 01:11:19;;;;;;;8.47;6.80;;;10.60;99.90;;;;;;7388734;19;20150;-75
2023/04/09 01:14:05;;;;;;;9.30;7.40;;;10.60;99.90;;;;;;7390876;19;20214;-74
2023/04/09 01:16:33;;;;;;;8.67;6.60;;;10.50;99.90;;;;;;7388224;19;20143;-74
2023/04/09 01:19:04;;;;;;;7.83;6.93;;;10.50;99.90;;;;;;7390009;19;20154;-74
2023/04/09 01:21:32;;;;;;;8.47;6.77;;;10.50;99.90;;;;;;7387711;19;20171;-74
2023/04/09 01:24:27;;;;;;;8.53;6.80;;;10.40;99.90;;;;;;7386144;19;20565;-73
2023/04/09 01:27:03;;;;;;;9.00;7.00;;;10.40;99.90;;;;;;7390639;19;20160;-73
2023/04/09 01:29:34;;;;;;;9.60;7.63;;;10.50;99.90;;;;;;7389333;19;20146;-74
2023/04/09 01:32:05;;;;;;;8.90;6.77;;;10.60;99.90;;;;;;7390145;19;20146;-75
2023/04/09 01:34:32;;;;;;;9.93;7.67;;;10.60;99.90;;;;;;7384170;19;20150;-74
2023/04/09 01:37:01;;;;;;;9.90;7.27;;;10.50;99.90;;;;;;7389811;19;20138;-75
2023/04/09 01:39:27;;;;;;;8.67;6.93;;;10.50;99.90;;;;;;7387058;19;20143;-74
2023/04/09 01:41:55;;;;;;;8.97;6.67;;;10.50;99.90;;;;;;7385603;19;20178;-74
2023/04/09 01:44:22;;;;;;;9.73;6.80;;;10.50;99.90;;;;;;7387938;19;20135;-74
2023/04/09 01:46:48;;;;;;;10.63;7.37;;;10.40;99.90;;;;;;7387244;19;20158;-75
2023/04/09 01:49:15;;;;;;;9.27;7.03;;;10.40;99.90;;;;;;7387278;19;20150;-74
2023/04/09 01:51:42;;;;;;;8.53;6.97;;;10.50;99.90;;;;;;7388709;19;20146;-73
2023/04/09 01:54:08;;;;;;;8.43;7.23;;;10.50;99.90;;;;;;7389805;19;20782;-74
2023/04/09 01:56:44;;;;;;;10.20;6.87;;;10.60;99.90;;;;;;7390488;19;20127;-74
2023/04/09 01:59:10;;;;;;;9.53;7.13;;;10.60;99.90;;;;;;7389920;19;20142;-74
2023/04/09 02:01:45;;;;;;;8.53;6.93;;;10.60;99.90;;;;;;7386247;19;20162;-74
2023/04/09 02:04:42;;;;;;;7.60;6.73;;;10.30;99.90;;;;;;7388419;19;20146;-75
2023/04/09 02:07:32;;;;;;;8.90;7.00;;;10.20;99.90;;;;;;7381804;19;20146;-75
2023/04/09 02:09:59;;;;;;;10.37;7.30;;;10.10;99.90;;;;;;7389031;19;20122;-73
2023/04/09 02:12:26;;;;;;;7.07;6.37;;;10.10;99.90;;;;;;7388789;19;20146;-74
2023/04/09 02:14:52;;;;;;;9.40;7.30;;;10.10;99.90;;;;;;7391454;19;20538;-75
2023/04/09 02:17:18;;;;;;;11.43;8.40;;;10.20;99.90;;;;;;7388092;19;20577;-74
2023/04/09 02:19:46;;;;;;;9.43;7.83;;;10.40;99.90;;;;;;7387298;19;20210;-74
2023/04/09 02:22:13;;;;;;;9.53;7.47;;;10.40;99.90;;;;;;7387141;19;20141;-74
2023/04/09 02:24:42;;;;;;;9.60;7.73;;;10.40;99.90;;;;;;7390226;19;20130;-74
2023/04/09 02:27:07;;;;;;;8.67;7.20;;;10.40;99.90;;;;;;7387002;19;20198;-74
2023/04/09 02:29:33;;;;;;;10.20;7.83;;;10.40;99.90;;;;;;7386618;19;20131;-75
2023/04/09 02:31:59;;;;;;;9.90;7.50;;;10.40;99.90;;;;;;7387953;19;20163;-75
2023/04/09 02:34:25;;;;;;;9.90;8.00;;;10.30;99.90;;;;;;7388050;19;20142;-74
2023/04/09 02:36:51;;;;;;;9.67;7.40;;;10.30;99.90;;;;;;7388602;19;20141;-74
2023/04/09 02:39:17;;;;;;;9.80;8.00;;;10.30;99.90;;;;;;7389621;19;20202;-74
2023/04/09 02:41:43;;;;;;;10.50;7.57;;;10.30;99.90;;;;;;7386089;19;20650;-74
2023/04/09 02:44:09;;;;;;;11.47;8.13;;;10.30;99.90;;;;;;7387060;19;20149;-75
2023/04/09 02:46:35;;;;;;;10.23;7.70;;;10.20;99.90;;;;;;7385215;19;20150;-74
2023/04/09 02:49:00;;;;;;;10.73;8.53;;;10.20;99.90;;;;;;7386262;19;20135;-74
2023/04/09 02:51:26;;;;;;;12.50;8.47;;;10.10;99.90;;;;;;7385593;19;20921;-74
2023/04/09 02:53:52;;;;;;;10.90;8.07;;;10.10;99.90;;;;;;7387430;19;20127;-74
2023/04/09 02:56:18;;;;;;;8.40;7.37;;;10.20;99.90;;;;;;7386021;19;20134;-74
2023/04/09 02:58:44;;;;;;;8.97;7.30;;;10.10;99.90;;;;;;7386240;19;20135;-74
2023/04/09 03:01:09;;;;;;;10.23;8.47;;;10.10;99.90;;;;;;7383890;19;20150;-75
2023/04/09 03:03:38;;;;;;;10.90;7.87;;;10.10;99.90;;;;;;7384845;19;20139;-74
2023/04/09 03:06:04;;;;;;;8.80;7.80;;;10.10;99.90;;;;;;7384985;19;20138;-75
2023/04/09 03:08:30;;;;;;;10.47;8.60;;;10.00;99.90;;;;;;7384465;19;20150;-74
2023/04/09 03:10:56;;;;;;;9.30;7.40;;;10.00;99.90;;;;;;7385666;19;20467;-74
2023/04/09 03:13:21;;;;;;;10.13;7.83;;;10.00;99.90;;;;;;7385224;19;20133;-75
2023/04/09 03:15:51;;;;;;;12.23;7.63;;;10.10;99.90;;;;;;7385752;19;20166;-74
2023/04/09 03:18:17;;;;;;;12.83;9.00;;;10.00;99.90;;;;;;7385273;19;20636;-74
2023/04/09 03:20:43;;;;;;;8.23;7.10;;;10.00;99.90;;;;;;7383666;19;20131;-75
2023/04/09 03:23:10;;;;;;;9.67;7.40;;;9.90;99.90;;;;;;7386136;19;20141;-74
2023/04/09 03:25:36;;;;;;;9.00;7.50;;;10.00;99.90;;;;;;7384976;19;20142;-74
2023/04/09 03:28:02;;;;;;;10.40;7.30;;;9.80;99.90;;;;;;7384521;19;20127;-75
2023/04/09 03:30:28;;;;;;;8.37;7.47;;;9.70;99.90;;;;;;7386203;19;20135;-74
2023/04/09 03:32:54;;;;;;;9.23;7.53;;;9.80;99.90;;;;;;7392233;19;20130;-75
2023/04/09 03:35:20;;;;;;;10.73;7.87;;;10.00;99.90;;;;;;7391972;19;20154;-73
2023/04/09 03:37:46;;;;;;;9.33;7.80;;;10.00;99.90;;;;;;7393027;19;20151;-74
2023/04/09 03:40:12;;;;;;;9.53;7.23;;;10.00;99.90;;;;;;7392908;19;20562;-74
2023/04/09 03:42:38;;;;;;;9.10;7.63;;;9.90;99.90;;;;;;7394316;19;20587;-75
2023/04/09 03:45:05;;;;;;;9.63;7.50;;;10.00;99.90;;;;;;7391896;19;20142;-75
2023/04/09 03:47:32;;;;;;;9.63;7.73;;;10.00;99.90;;;;;;7393159;19;20507;-74
2023/04/09 03:49:57;;;;;;;10.83;7.63;;;10.00;99.90;;;;;;7393463;19;20158;-74
2023/04/09 03:52:23;;;;;;;10.83;7.23;;;10.00;99.90;;;;;;7393289;19;20143;-74
2023/04/09 03:54:49;;;;;;;9.20;7.63;;;10.10;99.90;;;;;;7391577;19;20666;-74
2023/04/09 03:57:15;;;;;;;9.60;7.47;;;10.10;99.90;;;;;;7393945;19;20126;-75
2023/04/09 03:59:41;;;;;;;9.70;7.70;;;10.10;99.90;;;;;;7389965;19;20133;-74
2023/04/09 04:02:06;;;;;;;10.50;7.73;;;10.00;99.90;;;;;;7392031;19;20130;-76
2023/04/09 04:04:32;;;;;;;9.97;8.03;;;10.00;99.90;;;;;;7392712;19;20146;-75
2023/04/09 04:06:58;;;;;;;9.00;7.47;;;10.00;99.90;;;;;;7394268;19;20130;-75
2023/04/09 04:09:23;;;;;;;9.57;7.53;;;9.90;99.90;;;;;;7386391;19;20155;-74
2023/04/09 04:11:49;;;;;;;9.97;8.00;;;9.90;99.90;;;;;;7393177;19;20510;-75
2023/04/09 04:14:15;;;;;;;8.40;7.43;;;9.90;99.90;;;;;;7390041;19;20146;-74
2023/04/09 04:16:41;;;;;;;12.37;8.00;;;9.90;99.90;;;;;;7391665;19;20154;-74
2023/04/09 04:19:07;;;;;;;10.10;7.90;;;9.90;99.90;;;;;;7390419;19;20142;-75
2023/04/09 04:21:32;;;;;;;9.40;7.10;;;9.90;99.90;;;;;;7389757;19;20151;-74
2023/04/09 04:23:58;;;;;;;8.90;7.60;;;10.00;99.90;;;;;;7391621;19;20151;-74
2023/04/09 04:26:24;;;;;;;10.57;8.00;;;10.00;99.90;;;;;;7392373;19;20151;-75
2023/04/09 04:28:50;;;;;;;14.03;9.80;;;10.00;99.90;;;;;;7389086;19;20615;-74
2023/04/09 04:31:15;;;;;;;10.90;8.87;;;10.00;99.90;;;;;;7392383;19;20147;-74
2023/04/09 04:33:42;;;;;;;8.43;7.23;;;9.90;99.90;;;;;;7388760;19;20147;-74
2023/04/09 04:36:10;;;;;;;9.83;7.50;;;10.00;99.90;;;;;;7390939;19;20156;-75
2023/04/09 04:38:36;;;;;;;9.93;7.80;;;10.00;99.90;;;;;;7389265;19;20549;-74
2023/04/09 04:41:02;;;;;;;9.73;7.77;;;10.00;99.90;;;;;;7388142;19;20478;-74
2023/04/09 04:43:28;;;;;;;11.40;8.10;;;9.90;99.90;;;;;;7388810;19;20190;-75
2023/04/09 04:45:54;;;;;;;9.60;7.20;;;9.90;99.90;;;;;;7391855;19;20154;-75
2023/04/09 04:48:20;;;;;;;9.20;7.03;;;9.80;99.90;;;;;;7387936;19;20142;-73
2023/04/09 04:50:46;;;;;;;9.20;7.70;;;9.90;99.90;;;;;;7391073;19;20147;-73
2023/04/09 04:53:14;;;;;;;9.97;7.57;;;9.90;99.90;;;;;;7388611;19;20184;-74
2023/04/09 04:55:40;;;;;;;8.23;7.10;;;9.90;99.90;;;;;;7390392;19;20210;-74
2023/04/09 04:58:06;;;;;;;10.23;7.77;;;9.80;99.90;;;;;;7389246;19;20138;-74
2023/04/09 05:00:32;;;;;;;9.47;7.87;;;9.70;99.90;;;;;;7391998;19;20143;-74
2023/04/09 05:02:58;;;;;;;11.43;7.37;;;9.70;99.90;;;;;;7389479;19;20164;-74
2023/04/09 05:05:23;;;;;;;10.07;7.33;;;9.80;99.90;;;;;;7391206;19;20143;-74
2023/04/09 05:07:49;;;;;;;8.63;7.13;;;9.80;99.90;;;;;;7388827;19;20615;-75
2023/04/09 05:10:15;;;;;;;9.27;6.93;;;9.90;99.90;;;;;;7389629;19;20154;-75
2023/04/09 05:12:41;;;;;;;10.40;7.37;;;10.00;99.90;;;;;;7388128;19;20166;-73
2023/04/09 05:15:07;;;;;;;12.13;8.07;;;9.90;99.90;;;;;;7388771;19;20627;-74
2023/04/09 05:17:32;;;;;;;9.73;7.30;;;9.60;99.90;;;;;;7389001;19;20154;-75
2023/04/09 05:19:58;;;;;;;10.73;7.43;;;9.50;99.90;;;;;;7390247;19;20648;-75
2023/04/09 05:22:24;;;;;;;9.73;7.60;;;9.80;99.90;;;;;;7384885;19;20177;-73
2023/04/09 05:24:50;;;;;;;8.93;7.27;;;9.80;99.90;;;;;;7383402;19;20134;-75
2023/04/09 05:27:18;;;;;;;9.03;7.17;;;9.90;99.90;;;;;;7382491;19;20647;-74
2023/04/09 05:29:44;;;;;;;9.20;7.23;;;9.90;99.90;;;;;;7381680;19;20154;-75
2023/04/09 05:32:10;;;;;;;8.23;6.87;;;9.90;99.90;;;;;;7383289;19;20488;-73
2023/04/09 05:34:35;;;;;;;8.60;7.30;;;10.00;99.90;;;;;;7381665;19;20187;-75
2023/04/09 05:37:01;;;;;;;8.70;6.87;;;10.00;99.90;;;;;;7382425;19;20138;-75
2023/04/09 05:39:27;;;;;;;10.53;7.80;;;10.00;99.90;;;;;;7384438;19;20138;-75
2023/04/09 05:41:52;;;;;;;8.73;7.30;;;9.90;99.90;;;;;;7378752;19;20170;-75
2023/04/09 05:44:18;;;;;;;10.50;7.90;;;9.90;99.90;;;;;;7383802;19;20623;-75
2023/04/09 05:46:44;;;;;;;9.80;7.70;;;9.90;99.90;;;;;;7380475;19;20146;-75
2023/04/09 05:49:10;;;;;;;10.80;7.03;;;10.00;99.90;;;;;;7383883;19;20580;-75
2023/04/09 05:51:36;;;;;;;8.87;6.97;;;9.90;99.90;;;;;;7378726;19;20142;-75
2023/04/09 05:54:02;;;;;;;9.43;7.67;;;10.00;99.90;;;;;;7382066;19;20135;-75
2023/04/09 05:56:28;;;;;;;9.87;8.10;;;10.00;99.90;;;;;;7383456;19;20134;-75
2023/04/09 05:58:53;;;;;;;10.90;7.67;;;10.00;99.90;;;;;;7384243;19;20241;-75
2023/04/09 06:01:20;;;;;;;9.63;7.20;;;9.90;99.90;;;;;;7384032;19;20126;-74
2023/04/09 06:03:45;;;;;;;11.37;7.83;;;10.00;99.90;;;;;;7388039;19;20602;-75
2023/04/09 06:06:12;;;;;;;8.67;7.03;;;10.10;99.90;;;;;;7388751;19;20135;-75
2023/04/09 06:08:37;;;;;;;9.07;7.13;;;10.30;99.90;;;;;;7386266;19;20135;-74
2023/04/09 06:11:07;;;;;;;9.93;7.40;;;10.20;99.90;;;;;;7386344;19;20198;-74
2023/04/09 06:13:33;;;;;;;10.10;7.57;;;10.30;99.90;;;;;;7384480;19;20501;-74
2023/04/09 06:15:59;;;;;;;11.60;8.00;;;10.30;99.90;;;;;;7387293;19;20174;-73
2023/04/09 06:18:25;;;;;;;11.60;8.17;;;10.30;99.90;;;;;;7387417;19;20149;-74
2023/04/09 06:21:01;;;;;;;10.00;7.77;;;10.30;99.90;;;;;;7385488;19;20592;-74
2023/04/09 06:23:27;;;;;;;9.60;7.70;;;10.30;99.90;;;;;;7386503;19;20254;-74
2023/04/09 06:25:52;;;;;;;9.53;7.70;;;10.20;99.90;;;;;;7387564;19;20162;-75
2023/04/09 06:28:18;;;;;;;10.37;7.77;;;10.20;99.90;;;;;;7386614;19;20173;-75
2023/04/09 06:30:44;;;;;;;11.23;8.10;;;10.10;99.90;;;;;;7386664;19;20591;-74
2023/04/09 06:33:10;;;;;;;9.87;7.20;;;10.10;99.90;;;;;;7386542;19;20130;-75
2023/04/09 06:35:36;;;;;;;9.60;7.67;;;10.20;99.90;;;;;;7388850;19;20196;-75
2023/04/09 06:38:02;;;;;;;9.83;7.53;;;10.30;99.90;;;;;;7386761;19;20598;-74
2023/04/09 06:40:29;;;;;;;11.20;8.50;;;10.20;99.90;;;;;;7384384;19;20146;-75
2023/04/09 06:42:55;;;;;;;11.27;8.03;;;10.20;99.90;;;;;;7384053;19;21850;-74
2023/04/09 06:45:20;;;;;;;10.87;8.30;;;10.20;99.90;;;;;;7385134;19;20133;-74
2023/04/09 06:47:47;;;;;;;10.10;7.47;;;10.20;99.90;;;;;;7386110;19;20166;-76
2023/04/09 06:50:12;;;;;;;12.03;8.10;;;10.20;99.90;;;;;;7387207;19;20139;-74
2023/04/09 06:52:38;;;;;;;9.40;7.23;;;10.30;99.90;;;;;;7386584;19;20149;-75
2023/04/09 06:55:04;;;;;;;8.53;6.80;;;10.30;99.90;;;;;;7387530;19;20603;-74
2023/04/09 06:57:30;;;;;;;9.63;7.10;;;10.30;99.90;;;;;;7386026;19;20171;-74
2023/04/09 06:59:56;;;;;;;10.23;7.47;;;10.20;99.90;;;;;;7387128;19;20517;-73
2023/04/09 07:02:22;;;;;;;10.30;7.77;;;10.30;99.90;;;;;;7388170;19;20138;-75
2023/04/09 07:04:47;;;;;;;10.73;7.83;;;10.40;99.90;;;;;;7386465;19;20142;-75
2023/04/09 07:07:13;;;;;;;9.53;7.53;;;10.60;99.90;;;;;;7394717;19;20138;-73
2023/04/09 07:09:39;;;;;;;10.13;7.50;;;10.70;99.90;;;;;;7395566;19;20131;-74
2023/04/09 07:12:04;;;;;;;8.90;7.03;;;10.40;99.90;;;;;;7393210;19;20157;-75
2023/04/09 07:14:30;;;;;;;12.20;8.30;;;10.50;99.90;;;;;;7393616;19;20179;-73
2023/04/09 07:16:56;;;;;;;9.87;7.97;;;10.70;99.90;;;;;;7393682;19;20149;-73
2023/04/09 07:19:22;;;;;;;8.30;6.60;;;10.90;99.90;;;;;;7392206;19;20146;-74
2023/04/09 07:21:49;;;;;;;9.53;8.07;;;11.00;99.90;;;;;;7394613;19;20215;-77
2023/04/09 07:24:15;;;;;;;8.57;6.90;;;11.10;99.90;;;;;;7396731;19;20706;-75
2023/04/09 07:26:41;;;;;;;10.03;7.50;;;11.20;99.90;;;;;;7392879;19;20142;-75
2023/04/09 07:29:07;;;;;;;9.20;6.93;;;11.20;99.90;;;;;;7393786;19;20157;-75
2023/04/09 07:31:33;;;;;;;7.40;5.93;;;11.30;99.90;;;;;;7391559;19;20341;-75
2023/04/09 07:33:58;;;;;;;7.43;5.83;;;11.40;99.90;;;;;;7393035;19;20146;-76
2023/04/09 07:36:25;;;;;;;7.90;6.13;;;11.30;99.90;;;;;;7394244;19;20142;-75
2023/04/09 07:38:51;;;;;;;13.40;6.23;;;11.50;99.90;;;;;;7391009;19;20152;-75
2023/04/09 07:41:16;;;;;;;8.20;5.53;;;11.60;99.90;;;;;;7390934;19;20178;-75
2023/04/09 07:43:45;;;;;;;7.57;5.60;;;11.80;99.90;;;;;;7394655;19;20193;-77
2023/04/09 07:46:17;;;;;;;6.97;5.83;;;12.20;99.90;;;;;;7394090;19;20165;-76
2023/04/09 07:48:43;;;;;;;6.75;5.55;;;12.80;99.90;;;;;;7390592;19;20138;-76
2023/04/09 07:51:10;;;;;;;7.30;5.35;;;13.40;99.90;;;;;;7391550;19;20674;-75
2023/04/09 07:53:35;;;;;;;8.13;6.00;;;13.40;99.90;;;;;;7390257;19;20143;-75
2023/04/09 07:56:01;;;;;;;8.77;6.03;;;13.10;99.90;;;;;;7391404;19;20171;-76
2023/04/09 07:58:27;;;;;;;6.70;5.50;;;12.70;99.90;;;;;;7381150;19;20872;-80
2023/04/09 08:00:53;;;;;;;7.68;6.07;;;12.30;99.90;;;;;;7393536;19;20143;-76
2023/04/09 08:03:19;;;;;;;7.73;5.63;;;12.20;99.90;;;;;;7392075;19;20154;-78
2023/04/09 08:05:44;;;;;;;6.77;5.50;;;12.20;99.90;;;;;;7392410;19;20131;-75
2023/04/09 08:08:10;;;;;;;7.88;4.88;;;12.70;99.90;;;;;;7381145;19;20162;-80
2023/04/09 08:10:36;;;;;;;7.23;5.30;;;13.30;99.90;;;;;;7380909;19;20135;-79
2023/04/09 08:13:01;;;;;;;6.70;5.57;;;13.80;99.90;;;;;;7392061;19;20737;-79
2023/04/09 08:15:27;;;;;;;5.32;4.53;;;14.00;99.90;;;;;;7392971;19;20150;-80
2023/04/09 08:17:53;;;;;;;6.17;4.63;;;13.60;99.90;;;;;;7393287;19;20142;-77
2023/04/09 08:20:19;;;;;;;8.57;5.85;;;13.50;99.90;;;;;;7384597;19;20131;-77
2023/04/09 08:22:44;;;;;;;6.77;5.23;;;13.80;99.90;;;;;;7389056;19;20151;-79
2023/04/09 08:25:10;;;;;;;5.45;4.53;;;14.10;99.90;;;;;;7386260;19;20258;-75
2023/04/09 08:27:36;;;;;;;6.43;4.70;;;14.40;99.90;;;;;;7387961;19;20463;-78
2023/04/09 08:30:03;;;;;;;5.50;4.13;;;14.40;99.90;;;;;;7387730;19;20256;-76
2023/04/09 08:32:29;;;;;;;7.07;4.97;;;14.50;99.90;;;;;;7386957;19;20142;-74
2023/04/09 08:34:55;;;;;;;6.70;5.13;;;14.50;99.90;;;;;;7389549;19;20490;-75
2023/04/09 08:37:20;;;;;;;6.25;5.13;;;14.20;99.90;;;;;;7387485;19;20206;-76
2023/04/09 08:39:46;;;;;;;6.32;4.78;;;14.10;99.90;;;;;;7385921;19;20146;-76
2023/04/09 08:42:14;;;;;;;5.83;4.47;;;14.20;99.90;;;;;;7381094;19;20190;-77
2023/04/09 08:44:41;;;;;;;7.47;4.83;;;14.00;99.90;;;;;;7383987;19;20139;-74
2023/04/09 08:47:10;;;;;;;6.60;4.50;;;14.00;99.90;;;;;;7383492;19;20556;-75
2023/04/09 08:49:40;;;;;;;4.53;3.93;;;14.00;99.90;;;;;;7385916;19;20138;-76
2023/04/09 08:52:07;;;;;;;5.27;4.47;;;13.90;99.90;;;;;;7384822;19;20191;-75
2023/04/09 08:54:32;;;;;;;6.33;4.93;;;14.10;99.90;;;;;;7386900;19;20162;-75
2023/04/09 08:56:58;;;;;;;6.07;4.50;;;14.00;99.90;;;;;;7387506;19;20150;-75
2023/04/09 08:59:25;;;;;;;5.93;5.03;;;14.10;99.90;;;;;;7381650;19;20598;-73
2023/04/09 09:02:06;;;;;;;6.40;5.00;;;14.00;99.90;;;;;;7383994;19;20595;-78
2023/04/09 09:04:45;;;;;;;7.07;5.03;;;13.80;99.90;;;;;;7386212;19;20146;-77
2023/04/09 09:07:11;;;;;;;6.43;4.65;;;13.90;99.90;;;;;;7385642;19;20671;-76
2023/04/09 09:10:10;;;;;;;6.57;4.60;;;14.10;99.90;;;;;;7386280;19;20172;-76
2023/04/09 09:12:40;;;;;;;5.87;4.33;;;14.20;99.90;;;;;;7382013;19;20611;-75
2023/04/09 09:15:30;;;;;;;4.00;3.60;;;14.20;99.90;;;;;;7385692;19;20221;-76
2023/04/09 09:17:58;;;;;;;6.32;4.63;;;14.30;99.90;;;;;;7386557;19;20628;-75
2023/04/09 09:20:25;;;;;;;4.70;4.18;;;14.30;99.90;;;;;;7387946;19;20142;-75
2023/04/09 09:22:54;;;;;;;7.88;5.35;;;14.30;99.90;;;;;;7385544;19;21801;-74
2023/04/09 09:25:24;;;;;;;6.03;4.78;;;14.20;99.90;;;;;;7385934;19;20135;-76
2023/04/09 09:27:51;;;;;;;6.10;4.93;;;14.10;99.90;;;;;;7384227;19;20135;-76
2023/04/09 09:30:25;;;;;;;5.38;4.80;;;14.40;99.90;;;;;;7384284;19;20611;-74
2023/04/09 09:33:07;;;;;;;6.40;5.07;;;14.60;99.90;;;;;;7386663;19;20879;-77
2023/04/09 09:35:50;;;;;;;5.75;4.80;;;14.60;99.90;;;;;;7383336;19;20145;-77
2023/04/09 09:38:16;;;;;;;5.75;4.47;;;14.50;99.90;;;;;;7385320;19;20153;-76
2023/04/09 09:40:43;;;;;;;6.18;4.60;;;14.50;99.90;;;;;;7380367;19;20146;-75
2023/04/09 09:43:09;;;;;;;5.28;4.43;;;14.80;99.90;;;;;;7381727;19;20199;-77
2023/04/09 09:45:40;;;;;;;5.35;4.53;;;14.80;99.90;;;;;;7385893;19;20715;-77
2023/04/09 09:48:06;;;;;;;6.03;5.05;;;14.80;99.90;;;;;;7385964;19;20639;-77
2023/04/09 09:50:34;;;;;;;5.20;4.65;;;14.90;99.90;;;;;;7385865;19;20165;-78
2023/04/09 09:53:07;;;;;;;5.60;4.53;;;14.90;99.90;;;;;;7382049;19;20157;-75
2023/04/09 09:55:38;;;;;;;5.15;4.35;;;14.90;99.90;;;;;;7389004;19;20142;-76
2023/04/09 09:58:28;;;;;;;5.07;4.57;;;14.90;99.90;;;;;;7388349;19;20146;-76
2023/04/09 10:00:56;;;;;;;5.78;4.90;;;15.10;99.90;;;;;;7382564;19;20471;-77
2023/04/09 10:03:28;;;;;;;5.20;4.63;;;14.90;99.90;;;;;;7387570;19;20139;-77
2023/04/09 10:05:56;;;;;;;5.82;4.90;;;14.70;99.90;;;;;;7387782;19;20411;-78
2023/04/09 10:08:22;;;;;;;5.60;4.38;;;14.60;99.90;;;;;;7385538;19;20142;-75
2023/04/09 10:10:50;;;;;;;4.35;3.95;;;14.50;99.90;;;;;;7385232;19;20142;-76
2023/04/09 10:13:31;;;;;;;4.30;3.90;;;14.20;99.90;;;;;;7387163;19;20154;-78
2023/04/09 10:15:58;;;;;;;4.78;4.18;;;14.20;99.90;;;;;;7385328;19;21476;-76
2023/04/09 10:18:25;;;;;;;5.07;3.95;;;14.20;99.90;;;;;;7378903;19;20671;-77
2023/04/09 10:21:06;;;;;;;4.80;4.20;;;14.70;99.90;;;;;;7386089;19;20150;-76
2023/04/09 10:23:43;;;;;;;4.30;3.83;;;14.90;99.90;;;;;;7386924;19;20611;-78
2023/04/09 10:26:09;;;;;;;3.85;3.08;;;14.90;99.90;;;;;;7387351;19;20165;-76
2023/04/09 10:28:37;;;;;;;3.10;2.80;;;15.00;99.90;;;;;;7384064;19;20441;-76
2023/04/09 10:31:07;;;;;;;4.47;3.80;;;14.90;98.90;;;;;;7386726;19;20180;-77
2023/04/09 10:33:36;;;;;;;5.63;4.05;;;14.70;99.10;;;;;;7385720;19;20911;-76
2023/04/09 10:36:09;;;;;;;3.50;3.17;;;14.60;99.70;;;;;;7387969;19;20149;-76
2023/04/09 10:38:37;;;;;;;3.20;2.90;;;14.50;98.60;;;;;;7387491;19;20162;-77
2023/04/09 10:41:26;;;;;;;3.30;2.95;;;14.60;98.70;;;;;;7392592;19;20151;-76
2023/04/09 10:43:52;;;;;;;3.45;2.70;;;14.80;97.60;;;;;;7394599;19;20240;-77
2023/04/09 10:46:28;;;;;;;3.20;2.90;;;14.90;97.70;;;;;;7393724;19;20551;-76
2023/04/09 10:49:10;;;;;;;6.25;3.45;;;14.90;96.30;;;;;;7393370;19;20151;-76
2023/04/09 10:51:37;;;;;;;3.58;2.65;;;15.00;96.80;;;;;;7395052;19;20174;-78
2023/04/09 10:54:05;;;;;;;3.13;2.40;;;14.90;94.70;;;;;;7393048;19;20530;-74
2023/04/09 10:56:32;;;;;;;3.42;3.00;;;15.00;94.90;;;;;;7394247;19;20127;-76
2023/04/09 10:58:57;;;;;;;2.50;2.28;;;15.00;95.20;;;;;;7395913;19;20473;-78
2023/04/09 11:01:25;;;;;;;3.33;3.03;;;15.00;95.50;;;;;;7395608;19;20218;-78
2023/04/09 11:04:19;;;;;;;4.28;3.20;;;15.00;95.60;;;;;;7396068;19;20145;-78
2023/04/09 11:06:46;;;;;;;3.08;2.45;;;14.50;95.10;;;;;;7396752;19;20198;-77
2023/04/09 11:09:12;;;;;;;4.13;2.90;;;14.50;95.90;;;;;;7393566;19;20135;-77
2023/04/09 11:11:38;;;;;;;3.47;2.70;;;14.40;95.10;;;;;;7394410;19;20640;-79
2023/04/09 11:14:04;;;;;;;3.28;2.60;;;14.20;95.30;;;;;;7393703;19;20661;-79
2023/04/09 11:16:30;;;;;;;4.10;2.88;;;14.20;95.60;;;;;;7396339;19;20138;-80
2023/04/09 11:18:56;;;;;;;3.60;2.92;;;14.40;95.80;;;;;;7395100;19;20145;-79
2023/04/09 11:21:27;;;;;;;3.42;3.13;;;14.30;96.40;;;;;;7393881;19;20171;-80
2023/04/09 11:23:53;;;;;;;3.10;2.55;;;14.30;96.20;;;;;;7396642;19;20134;-80
2023/04/09 11:26:33;;;;;;;3.33;3.03;;;14.20;96.20;;;;;;7394834;19;20134;-78
2023/04/09 11:29:09;;;;;;;3.85;3.08;;;14.30;96.70;;;;;;7391981;19;20138;-80
2023/04/09 11:31:35;;;;;;;3.70;3.25;;;14.40;96.80;;;;;;7395240;19;20910;-76
2023/04/09 11:34:02;;;;;;;3.97;3.30;;;14.20;96.60;;;;;;7392039;19;20126;-76
2023/04/09 11:36:27;;;;;;;4.20;3.33;;;14.50;97.10;;;;;;7393770;19;20139;-75
2023/04/09 11:38:57;;;;;;;3.53;2.95;;;14.60;95.60;;;;;;7394470;19;20150;-75
2023/04/09 11:41:37;;;;;;;4.00;3.22;;;14.80;96.00;;;;;;7391073;19;20186;-75
2023/04/09 11:44:04;;;;;;;3.75;3.20;;;14.50;95.30;;;;;;7393094;19;20130;-76
2023/04/09 11:46:37;;;;;;;3.38;3.03;;;14.70;96.20;;;;;;7387888;19;20158;-75
2023/04/09 11:49:03;;;;;;;3.85;3.33;;;14.60;95.90;;;;;;7390154;19;20130;-74
2023/04/09 11:51:34;;;;;;;3.40;3.10;;;15.00;96.60;;;;;;7391218;19;20205;-77
2023/04/09 11:54:04;;;;;;;3.38;3.08;;;15.20;95.70;;;;;;7389699;19;20383;-74
2023/04/09 11:56:31;;;;;;;3.38;3.03;;;15.40;95.70;;;;;;7395738;19;20143;-73
2023/04/09 11:58:57;;;;;;;3.00;2.70;;;15.30;94.00;;;;;;7391969;19;20134;-73
2023/04/09 12:01:23;;;;;;;3.80;3.40;;;15.40;93.40;;;;;;7392757;19;20146;-76
2023/04/09 12:03:55;;;;;;;3.47;3.13;;;15.30;93.20;;;;;;7394017;19;20227;-74
2023/04/09 12:06:25;;;;;;;3.70;3.03;;;15.10;94.30;;;;;;7395551;19;20135;-74
2023/04/09 12:08:58;;;;;;;2.88;2.63;;;15.00;93.70;;;;;;7389234;19;20146;-74
2023/04/09 12:11:30;;;;;;;3.70;3.10;;;15.00;94.10;;;;;;7389966;19;20142;-74
2023/04/09 12:14:05;;;;;;;3.60;3.03;;;15.00;94.30;;;;;;7390712;19;20142;-72
2023/04/09 12:16:35;;;;;;;3.40;2.80;;;15.10;94.50;;;;;;7392834;19;20141;-73
2023/04/09 12:19:11;;;;;;;3.55;3.22;;;15.10;94.40;;;;;;7391285;19;20138;-74
2023/04/09 12:21:57;;;;;;;3.47;3.17;;;15.30;93.90;;;;;;7389487;19;20135;-74
2023/04/09 12:24:24;;;;;;;3.03;2.67;;;15.30;94.00;;;;;;7390870;19;20146;-77
2023/04/09 12:26:50;;;;;;;3.75;3.08;;;15.20;93.60;;;;;;7391087;19;20194;-74
2023/04/09 12:29:19;;;;;;;3.65;2.80;;;15.20;93.70;;;;;;7392931;19;20604;-76
2023/04/09 12:31:45;;;;;;;2.65;2.40;;;15.00;94.30;;;;;;7389590;19;20206;-74
2023/04/09 12:34:12;;;;;;;3.67;2.85;;;15.00;93.90;;;;;;7394049;19;20148;-75
2023/04/09 12:36:38;;;;;;;3.63;3.10;;;15.20;94.10;;;;;;7391075;19;20138;-76
2023/04/09 12:39:04;;;;;;;4.07;2.90;;;15.40;93.70;;;;;;7392979;19;20205;-77
2023/04/09 12:41:30;;;;;;;3.78;3.45;;;15.50;93.70;;;;;;7388388;19;20155;-76
2023/04/09 12:43:56;;;;;;;3.55;2.75;;;15.50;93.90;;;;;;7392351;19;20517;-75
2023/04/09 12:46:22;;;;;;;3.40;2.90;;;15.80;93.30;;;;;;7390231;19;20135;-77
2023/04/09 12:48:47;;;;;;;2.85;2.45;;;15.80;93.00;;;;;;7388984;19;20150;-77
2023/04/09 12:51:14;;;;;;;2.92;2.40;;;15.60;92.50;;;;;;7390466;19;20137;-75